createdAt,value
2019-06-20T00:04:56.451Z,8
2019-06-20T00:09:56.448Z,8
2019-06-20T00:14:56.445Z,8
2019-06-20T00:19:56.445Z,7
2019-06-20T00:24:56.445Z,8
2019-06-20T00:29:56.449Z,7
2019-06-20T00:34:56.450Z,8
2019-06-20T00:39:56.445Z,7
2019-06-20T00:44:56.447Z,7
2019-06-20T00:54:56.450Z,7
2019-06-20T00:59:56.446Z,6
2019-06-20T01:04:56.472Z,6
2019-06-20T01:09:56.449Z,6
2019-06-20T01:14:56.449Z,5
2019-06-20T01:19:58.303Z,5
2019-06-20T01:24:56.452Z,5
2019-06-20T01:29:56.491Z,4
2019-06-20T01:34:56.462Z,5
2019-06-20T01:39:56.453Z,4
2019-06-20T01:44:56.456Z,5
2019-06-20T01:49:56.458Z,4
2019-06-20T01:54:56.458Z,4
2019-06-20T01:59:56.458Z,4
2019-06-20T02:04:56.465Z,5
2019-06-20T02:09:56.466Z,4
2019-06-20T02:14:56.462Z,4
2019-06-20T02:19:56.462Z,5
2019-06-20T02:24:56.462Z,4
2019-06-20T02:29:56.462Z,5
2019-06-20T02:34:56.463Z,7
2019-06-20T02:39:56.475Z,6
2019-06-20T02:44:56.466Z,6
2019-06-20T02:49:56.464Z,6
2019-06-20T02:54:56.488Z,6
2019-06-20T02:59:56.463Z,6
2019-06-20T03:04:56.471Z,6
2019-06-20T03:09:56.469Z,5
2019-06-20T03:14:56.468Z,5
2019-06-20T03:19:56.471Z,5
2019-06-20T03:24:56.474Z,7
2019-06-20T03:29:56.476Z,6
2019-06-20T03:34:56.482Z,5
2019-06-20T03:39:56.482Z,6
2019-06-20T03:45:01.909Z,5
2019-06-20T03:49:56.486Z,6
2019-06-20T03:54:56.487Z,7
2019-06-20T03:59:56.488Z,5
2019-06-20T04:04:56.490Z,6
2019-06-20T04:09:56.510Z,6
2019-06-20T04:14:56.494Z,6
2019-06-20T04:19:56.510Z,6
2019-06-20T04:24:56.498Z,6
2019-06-20T04:29:56.498Z,6
2019-06-20T04:34:56.516Z,6
2019-06-20T04:39:56.496Z,6
2019-06-20T04:44:56.501Z,7
2019-06-20T04:49:56.506Z,7
2019-06-20T04:54:56.505Z,5
2019-06-20T04:59:56.509Z,8
2019-06-20T05:04:56.515Z,8
2019-06-20T05:09:56.519Z,11
2019-06-20T05:14:56.508Z,9
2019-06-20T05:19:56.509Z,9
2019-06-20T05:24:56.566Z,8
2019-06-20T05:29:56.516Z,9
2019-06-20T05:34:56.513Z,9
2019-06-20T05:39:56.524Z,9
2019-06-20T05:44:56.521Z,9
2019-06-20T05:49:56.523Z,9
2019-06-20T05:54:56.775Z,8
2019-06-20T05:59:56.550Z,8
2019-06-20T06:04:56.542Z,10
2019-06-20T06:09:56.533Z,11
2019-06-20T06:14:56.567Z,10
2019-06-20T06:19:56.536Z,9
2019-06-20T06:24:56.544Z,8
2019-06-20T06:29:56.587Z,7
2019-06-20T06:34:56.542Z,7
2019-06-20T06:39:56.541Z,7
2019-06-20T06:44:56.541Z,6
2019-06-20T06:49:56.552Z,8
2019-06-20T06:54:56.543Z,10
2019-06-20T06:59:56.548Z,10
2019-06-20T07:04:56.589Z,11
2019-06-20T07:09:56.549Z,10
2019-06-20T07:14:56.553Z,11
2019-06-20T07:19:56.557Z,10
2019-06-20T07:24:56.552Z,9
2019-06-20T07:29:56.554Z,10
2019-06-20T07:34:56.555Z,8
2019-06-20T07:39:56.559Z,9
2019-06-20T07:44:56.553Z,9
2019-06-20T07:49:56.558Z,8
2019-06-20T07:54:56.565Z,8
2019-06-20T07:59:56.619Z,8
2019-06-20T08:04:56.554Z,7
2019-06-20T08:09:56.555Z,9
2019-06-20T08:14:56.558Z,8
2019-06-20T08:19:56.583Z,8
2019-06-20T08:24:56.786Z,8
2019-06-20T08:29:57.507Z,8
2019-06-20T08:34:57.865Z,8
2019-06-20T08:39:57.188Z,8
2019-06-20T08:44:57.828Z,10
2019-06-20T08:49:57.954Z,9
2019-06-20T08:54:57.871Z,8
2019-06-20T08:59:57.296Z,9
2019-06-20T09:04:57.837Z,9
2019-06-20T09:09:57.592Z,8
2019-06-20T09:14:56.887Z,9
2019-06-20T09:19:56.583Z,10
2019-06-20T09:24:56.796Z,9
2019-06-20T09:29:56.599Z,10
2019-06-20T09:34:56.623Z,8
2019-06-20T09:39:57.179Z,9
2019-06-20T09:44:56.568Z,8
2019-06-20T09:49:57.688Z,14
2019-06-20T09:54:56.567Z,8
2019-06-20T10:00:07.507Z,8
2019-06-20T10:04:56.753Z,7
2019-06-20T10:09:56.569Z,7
2019-06-20T10:14:56.579Z,7
2019-06-20T10:19:56.613Z,6
2019-06-20T10:24:57.855Z,7
2019-06-20T10:30:04.934Z,6
2019-06-20T10:34:57.164Z,7
2019-06-20T10:39:56.799Z,6
2019-06-20T10:44:56.579Z,6
2019-06-20T10:49:56.577Z,5
2019-06-20T10:54:56.579Z,6
2019-06-20T10:59:56.594Z,6
2019-06-20T11:04:56.584Z,5
2019-06-20T11:09:56.606Z,6
2019-06-20T11:14:56.583Z,6
2019-06-20T11:19:56.584Z,13
2019-06-20T11:24:56.584Z,7
2019-06-20T11:29:56.586Z,6
2019-06-20T11:34:56.604Z,7
2019-06-20T11:39:56.588Z,6
2019-06-20T11:44:56.597Z,6
2019-06-20T11:49:56.605Z,6
2019-06-20T11:54:56.595Z,6
2019-06-20T11:59:56.595Z,6
2019-06-20T12:04:56.591Z,5
2019-06-20T12:09:56.594Z,9
2019-06-20T12:14:56.611Z,6
2019-06-20T12:19:56.593Z,7
2019-06-20T12:24:56.592Z,6
2019-06-20T12:29:56.593Z,5
2019-06-20T12:34:56.612Z,5
2019-06-20T12:39:56.599Z,6
2019-06-20T12:44:56.603Z,8
2019-06-20T12:49:56.600Z,6
2019-06-20T12:54:56.604Z,5
2019-06-20T12:59:56.685Z,10
2019-06-20T13:04:56.608Z,5
2019-06-20T13:09:56.616Z,5
2019-06-20T13:14:56.606Z,5
2019-06-20T13:19:56.604Z,5
2019-06-20T13:24:56.622Z,5
2019-06-20T13:29:56.609Z,5
2019-06-20T13:34:56.658Z,5
2019-06-20T13:39:56.620Z,4
2019-06-20T13:44:56.610Z,4
2019-06-20T13:49:56.610Z,5
2019-06-20T13:54:56.614Z,6
2019-06-20T13:59:56.643Z,5
2019-06-20T14:04:56.668Z,5
2019-06-20T14:09:56.620Z,5
2019-06-20T14:14:56.612Z,5
2019-06-20T14:19:56.656Z,5
2019-06-20T14:24:56.615Z,4
2019-06-20T14:29:56.612Z,4
2019-06-20T14:34:56.613Z,5
2019-06-20T14:39:57.070Z,4
2019-06-20T14:44:56.620Z,3
2019-06-20T14:49:56.614Z,4
2019-06-20T14:54:56.614Z,5
2019-06-20T14:59:56.643Z,5
2019-06-20T15:04:56.621Z,3
2019-06-20T15:09:56.645Z,3
2019-06-20T15:14:56.623Z,3
2019-06-20T15:19:56.627Z,3
2019-06-20T15:24:57.141Z,2
2019-06-20T15:29:56.624Z,3
2019-06-20T15:34:57.241Z,2
2019-06-20T15:39:57.463Z,2
2019-06-20T15:44:57.999Z,3
2019-06-20T15:49:56.638Z,3
2019-06-20T15:54:56.641Z,3
2019-06-20T15:59:56.635Z,4
2019-06-20T16:04:56.640Z,3
2019-06-20T16:09:56.641Z,3
2019-06-20T16:14:56.639Z,3
2019-06-20T16:19:56.640Z,3
2019-06-20T16:24:56.642Z,3
2019-06-20T16:29:56.648Z,3
2019-06-20T16:34:56.665Z,3
2019-06-20T16:39:56.657Z,3
2019-06-20T16:44:56.685Z,3
2019-06-20T16:49:56.708Z,3
2019-06-20T16:54:56.683Z,4
2019-06-20T16:59:56.673Z,4
2019-06-20T17:04:56.794Z,3
2019-06-20T17:09:56.681Z,4
2019-06-20T17:14:56.671Z,3
2019-06-20T17:19:56.675Z,3
2019-06-20T17:24:56.689Z,3
2019-06-20T17:29:56.680Z,3
2019-06-20T17:34:56.685Z,3
2019-06-20T17:39:56.685Z,3
2019-06-20T17:44:56.687Z,3
2019-06-20T17:49:56.697Z,4
2019-06-20T17:54:56.693Z,3
2019-06-20T17:59:56.729Z,4
2019-06-20T18:04:56.698Z,3
2019-06-20T18:09:56.704Z,4
2019-06-20T18:14:56.698Z,4
2019-06-20T18:19:56.723Z,4
2019-06-20T18:24:56.703Z,4
2019-06-20T18:29:56.709Z,4
2019-06-20T18:35:01.722Z,4
2019-06-20T18:39:56.710Z,4
2019-06-20T18:44:56.714Z,4
2019-06-20T18:49:56.717Z,5
2019-06-20T18:54:56.717Z,4
2019-06-20T18:59:56.742Z,5
2019-06-20T19:04:56.720Z,5
2019-06-20T19:09:56.723Z,5
2019-06-20T19:14:56.730Z,4
2019-06-20T19:19:56.768Z,5
2019-06-20T19:24:56.725Z,6
2019-06-20T19:29:56.725Z,5
2019-06-20T19:35:01.655Z,4
2019-06-20T19:39:56.726Z,6
2019-06-20T19:44:56.726Z,4
2019-06-20T19:49:56.741Z,5
2019-06-20T19:54:56.759Z,5
2019-06-20T19:59:56.730Z,5
2019-06-20T20:04:56.738Z,5
2019-06-20T20:09:56.736Z,6
2019-06-20T20:14:56.746Z,5
2019-06-20T20:19:56.737Z,5
2019-06-20T20:24:56.753Z,5
2019-06-20T20:29:56.736Z,6
2019-06-20T20:34:56.745Z,6
2019-06-20T20:39:56.738Z,6
2019-06-20T20:44:56.738Z,6
2019-06-20T20:49:56.739Z,6
2019-06-20T20:54:56.736Z,7
2019-06-20T20:59:56.739Z,7
2019-06-20T21:04:56.739Z,7
2019-06-20T21:09:56.740Z,7
2019-06-20T21:14:56.739Z,5
2019-06-20T21:19:56.743Z,5
2019-06-20T21:24:56.778Z,6
2019-06-20T21:29:56.799Z,5
2019-06-20T21:34:56.848Z,6
2019-06-20T21:39:56.742Z,6
2019-06-20T21:44:56.753Z,5
2019-06-20T21:49:56.748Z,7
2019-06-20T21:54:56.749Z,5
2019-06-20T21:59:56.748Z,6
2019-06-20T22:04:56.750Z,6
2019-06-20T22:09:56.749Z,5
2019-06-20T22:14:56.780Z,5
2019-06-20T22:19:56.785Z,5
2019-06-20T22:24:56.759Z,7
2019-06-20T22:29:56.749Z,5
2019-06-20T22:34:56.752Z,4
2019-06-20T22:39:56.757Z,6
2019-06-20T22:44:56.755Z,6
2019-06-20T22:49:56.756Z,5
2019-06-20T22:54:56.763Z,6
2019-06-20T22:59:56.768Z,6
2019-06-20T23:04:56.799Z,5
2019-06-20T23:10:09.592Z,5
2019-06-20T23:14:56.768Z,5
2019-06-20T23:19:56.766Z,8
2019-06-20T23:24:56.762Z,9
2019-06-20T23:29:56.758Z,7
2019-06-20T23:34:56.770Z,6
2019-06-20T23:39:56.765Z,7
2019-06-20T23:44:56.769Z,7
2019-06-20T23:49:56.760Z,7
2019-06-20T23:54:56.772Z,7
2019-06-20T23:59:56.773Z,6
